Time;durP1;ratioP1;P1;durP2;ratioP2;P2;SDS_P1;SDS_P2;PMS_P1;PMS_P2;Temp;Humidity;BMP_temperature;BMP_pressure;BME280_temperature;BME280_humidity;BME280_pressure;Samples;Min_cycle;Max_cycle;Signal;HPM_P1;HPM_P2
2024/02/22 00:01:21;;;;;;;;;;;;;;;7.25;100.00;99385.97;5032893;28;19917;-77
2024/02/22 00:03:46;;;;;;;;;;;;;;;7.22;100.00;99385.97;5049435;28;19969;-77
2024/02/22 00:06:15;;;;;;;;;;;;;;;7.09;100.00;99387.56;5033133;28;19929;-76
2024/02/22 00:08:45;;;;;;;;;;;;;;;7.18;100.00;99380.47;5029889;28;19962;-75
2024/02/22 00:11:13;;;;;;;;;;;;;;;7.22;100.00;99384.00;5028362;28;20287;-77
2024/02/22 00:13:39;;;;;;;;;;;;;;;7.20;100.00;99374.59;5023563;28;20011;-76
2024/02/22 00:16:08;;;;;;;;;;;;;;;7.18;100.00;99374.19;5031810;28;19964;-76
2024/02/22 00:18:35;;;;;;;;;;;;;;;7.04;100.00;99366.78;5041738;28;19939;-76
2024/02/22 00:21:00;;;;;;;;;;;;;;;6.94;100.00;99368.38;5044616;28;20349;-76
2024/02/22 00:23:26;;;;;;;;;;;;;;;6.87;100.00;99357.38;5029011;28;19919;-75
2024/02/22 00:25:51;;;;;;;;;;;;;;;6.84;100.00;99357.41;5042160;28;19974;-77
2024/02/22 00:28:17;;;;;;;;;;;;;;;6.73;100.00;99364.88;5028883;28;19913;-76
2024/02/22 00:30:42;;;;;;;;;;;;;;;6.56;100.00;99357.44;5028124;28;20004;-77
2024/02/22 00:33:07;;;;;;;;;;;;;;;6.38;100.00;99365.69;5038865;28;19924;-75
2024/02/22 00:35:34;;;;;;;;;;;;;;;6.36;100.00;99366.06;5042419;28;19924;-77
2024/02/22 00:37:59;;;;;;;;;;;;;;;6.22;100.00;99357.81;5028941;28;19913;-76
2024/02/22 00:40:25;;;;;;;;;;;;;;;6.07;100.00;99353.53;5032830;28;20301;-78
2024/02/22 00:42:52;;;;;;;;;;;;;;;6.07;100.00;99353.53;5048501;28;20320;-76
2024/02/22 00:45:17;;;;;;;;;;;;;;;5.93;100.00;99354.28;5044905;28;20313;-74
2024/02/22 00:47:42;;;;;;;;;;;;;;;5.84;100.00;99355.81;5038338;28;20016;-76
2024/02/22 00:50:08;;;;;;;;;;;;;;;5.81;100.00;99359.31;5034973;28;20435;-76
2024/02/22 00:52:33;;;;;;;;;;;;;;;5.70;100.00;99362.81;5038925;28;19913;-78
2024/02/22 00:54:59;;;;;;;;;;;;;;;5.69;100.00;99354.97;5031515;28;19921;-79
2024/02/22 00:57:24;;;;;;;;;;;;;;;5.63;100.00;99348.28;5039548;28;19956;-77
2024/02/22 00:59:50;;;;;;;;;;;;;;;5.55;100.00;99342.00;5042887;28;19921;-78
2024/02/22 01:02:15;;;;;;;;;;;;;;;5.48;100.00;99347.47;5028439;28;19995;-76
2024/02/22 01:04:45;;;;;;;;;;;;;;;5.45;100.00;99353.72;5028815;28;19982;-77
2024/02/22 01:07:10;;;;;;;;;;;;;;;5.36;100.00;99347.81;5037999;28;20101;-78
2024/02/22 01:09:37;;;;;;;;;;;;;;;5.33;100.00;99340.38;5035360;28;20383;-76
2024/02/22 01:12:05;;;;;;;;;;;;;;;5.28;100.00;99336.06;5038911;28;19919;-77
2024/02/22 01:14:33;;;;;;;;;;;;;;;5.24;100.00;99334.47;5044942;28;20289;-76
2024/02/22 01:17:02;;;;;;;;;;;;;;;5.28;100.00;99338.00;5049364;28;20037;-78
2024/02/22 01:19:27;;;;;;;;;;;;;;;5.24;100.00;99331.72;5034454;28;19920;-75
2024/02/22 01:21:53;;;;;;;;;;;;;;;5.21;100.00;99330.53;5028938;28;20026;-78
2024/02/22 01:24:18;;;;;;;;;;;;;;;5.15;100.00;99326.59;5046414;28;19913;-76
2024/02/22 01:26:43;;;;;;;;;;;;;;;5.27;100.00;99326.25;5041596;28;19970;-77
2024/02/22 01:29:09;;;;;;;;;;;;;;;5.24;100.00;99318.03;5032459;27;19956;-79
2024/02/22 01:31:36;;;;;;;;;;;;;;;5.22;100.00;99312.94;5042424;28;19912;-77
2024/02/22 01:34:05;;;;;;;;;;;;;;;5.15;100.00;99312.13;5035616;28;20433;-76
2024/02/22 01:36:31;;;;;;;;;;;;;;;5.11;100.00;99309.38;5031958;28;19913;-77
2024/02/22 01:38:56;;;;;;;;;;;;;;;5.09;100.00;99308.97;5035695;28;19913;-76
2024/02/22 01:41:22;;;;;;;;;;;;;;;5.06;100.00;99300.75;5051476;28;19916;-78
2024/02/22 01:43:57;;;;;;;;;;;;;;;5.04;100.00;99306.59;5047543;28;19987;-78
2024/02/22 01:46:27;;;;;;;;;;;;;;;5.01;100.00;99304.63;5032769;28;19924;-78
2024/02/22 01:48:53;;;;;;;;;;;;;;;4.90;100.00;99318.25;5037624;28;19916;-78
2024/02/22 01:51:21;;;;;;;;;;;;;;;4.79;100.00;99324.84;5051597;28;19976;-79
2024/02/22 01:53:50;;;;;;;;;;;;;;;4.67;100.00;99319.69;5038477;28;19917;-81
2024/02/22 01:56:17;;;;;;;;;;;;;;;4.67;100.00;99316.94;5039029;28;19920;-81
2024/02/22 01:58:43;;;;;;;;;;;;;;;4.69;100.00;99317.38;5025921;28;19925;-79
2024/02/22 02:01:10;;;;;;;;;;;;;;;4.59;100.00;99312.59;5037913;28;20017;-78
2024/02/22 02:03:40;;;;;;;;;;;;;;;4.49;100.00;99311.38;5044652;28;19917;-76
2024/02/22 02:06:05;;;;;;;;;;;;;;;4.38;100.00;99305.03;5045388;28;19917;-78
2024/02/22 02:08:31;;;;;;;;;;;;;;;4.38;100.00;99314.03;5032104;28;19918;-78
2024/02/22 02:10:58;;;;;;;;;;;;;;;4.40;100.00;99306.22;5033813;28;19970;-81
2024/02/22 02:13:26;;;;;;;;;;;;;;;4.46;100.00;99303.94;5044823;28;19932;-81
2024/02/22 02:15:52;;;;;;;;;;;;;;;4.51;100.00;99306.31;5049675;28;19913;-78
2024/02/22 02:18:17;;;;;;;;;;;;;;;4.50;100.00;99307.47;5043642;28;19924;-76
2024/02/22 02:21:01;;;;;;;;;;;;;;;4.46;100.00;99315.63;5032521;28;19917;-77
2024/02/22 02:23:53;;;;;;;;;;;;;;;4.42;100.00;99308.56;5040976;28;19913;-78
2024/02/22 02:26:19;;;;;;;;;;;;;;;4.33;100.00;99313.59;5090588;28;19952;-77
2024/02/22 02:28:45;;;;;;;;;;;;;;;4.30;100.00;99312.41;5033692;28;19917;-76
2024/02/22 02:31:13;;;;;;;;;;;;;;;4.23;100.00;99311.56;5037132;28;19928;-77
2024/02/22 02:33:39;;;;;;;;;;;;;;;4.29;100.00;99315.50;5037644;28;20349;-77
2024/02/22 02:36:06;;;;;;;;;;;;;;;4.26;100.00;99310.81;5021905;28;19952;-78
2024/02/22 02:38:31;;;;;;;;;;;;;;;4.06;100.00;99313.78;5037364;28;20418;-78
2024/02/22 02:40:57;;;;;;;;;;;;;;;4.01;100.00;99314.13;5044752;28;19917;-77
2024/02/22 02:43:22;;;;;;;;;;;;;;;3.99;100.00;99304.72;5045808;28;19919;-81
2024/02/22 02:45:48;;;;;;;;;;;;;;;3.96;100.00;99309.00;5053278;28;20305;-83
2024/02/22 02:48:19;;;;;;;;;;;;;;;3.93;100.00;99315.22;5051997;28;20419;-81
2024/02/22 02:50:45;;;;;;;;;;;;;;;3.89;100.00;99308.94;5050661;28;19913;-78
2024/02/22 02:53:12;;;;;;;;;;;;;;;3.81;100.00;99306.50;5036242;28;19941;-77
2024/02/22 02:55:40;;;;;;;;;;;;;;;3.62;100.00;99304.75;5023160;28;19917;-76
2024/02/22 02:58:10;;;;;;;;;;;;;;;3.57;100.00;99305.09;5036020;28;19955;-87
2024/02/22 03:00:44;;;;;;;;;;;;;;;3.32;100.00;99302.09;5031149;28;19921;-80
2024/02/22 03:03:12;;;;;;;;;;;;;;;3.17;100.00;99303.91;5046331;28;20362;-83
2024/02/22 03:05:43;;;;;;;;;;;;;;;3.27;100.00;99311.41;5033587;28;19913;-83
2024/02/22 03:08:31;;;;;;;;;;;;;;;3.30;100.00;99304.44;5040626;28;20080;-79
2024/02/22 03:11:02;;;;;;;;;;;;;;;3.27;100.00;99310.63;5050835;28;20373;-77
2024/02/22 03:13:35;;;;;;;;;;;;;;;3.33;100.00;99311.88;5031667;28;19913;-79
2024/02/22 03:16:12;;;;;;;;;;;;;;;3.30;100.00;99307.16;5032140;28;19917;-81
2024/02/22 03:18:40;;;;;;;;;;;;;;;3.35;100.00;99303.31;5043114;28;19973;-80
2024/02/22 03:21:08;;;;;;;;;;;;;;;3.40;100.00;99313.91;5050650;28;19913;-78
2024/02/22 03:23:41;;;;;;;;;;;;;;;3.38;100.00;99305.28;5039624;28;20382;-78
2024/02/22 03:26:07;;;;;;;;;;;;;;;3.40;100.00;99319.38;5030882;27;19924;-80
2024/02/22 03:28:35;;;;;;;;;;;;;;;3.34;100.00;99305.25;5043142;28;19961;-76
2024/02/22 03:31:02;;;;;;;;;;;;;;;3.42;100.00;99319.78;5051279;28;19923;-78
2024/02/22 03:33:29;;;;;;;;;;;;;;;3.40;100.00;99317.41;5040408;28;19913;-80
2024/02/22 03:35:57;;;;;;;;;;;;;;;3.40;100.00;99317.41;5048320;28;19913;-81
2024/02/22 03:38:29;;;;;;;;;;;;;;;3.27;100.00;99316.09;5034902;28;19920;-84
2024/02/22 03:40:57;;;;;;;;;;;;;;;3.17;100.00;99316.75;5023062;28;19914;-79
2024/02/22 03:43:23;;;;;;;;;;;;;;;3.06;100.00;99311.19;5033258;28;19960;-84
2024/02/22 03:45:53;;;;;;;;;;;;;;;2.89;100.00;99321.88;5034753;28;20458;-81
2024/02/22 03:48:19;;;;;;;;;;;;;;;2.76;100.00;99324.81;5033265;28;19913;-80
2024/02/22 03:50:52;;;;;;;;;;;;;;;2.75;100.00;99312.34;5032626;28;19921;-84
2024/02/22 03:53:17;;;;;;;;;;;;;;;2.74;100.00;99310.75;5049338;28;19920;-82
2024/02/22 03:55:44;;;;;;;;;;;;;;;2.74;100.00;99315.41;5044026;28;19913;-81
2024/02/22 03:58:13;;;;;;;;;;;;;;;2.75;100.00;99312.34;5033086;28;19916;-81
2024/02/22 04:00:39;;;;;;;;;;;;;;;2.85;100.00;99305.44;5052828;28;19920;-85
2024/02/22 04:03:07;;;;;;;;;;;;;;;2.96;100.00;99294.66;5035990;28;19913;-80
2024/02/22 04:05:33;;;;;;;;;;;;;;;2.99;100.00;99300.16;5033660;28;19934;-85
2024/02/22 04:07:58;;;;;;;;;;;;;;;3.02;100.00;99295.91;5046269;28;19917;-85
2024/02/22 04:10:24;;;;;;;;;;;;;;;3.04;100.00;99290.84;5044002;28;20408;-85
2024/02/22 04:12:51;;;;;;;;;;;;;;;3.12;100.00;99295.25;5035918;28;19917;-82
2024/02/22 04:15:25;;;;;;;;;;;;;;;3.04;100.00;99291.66;5042291;28;19913;-83
2024/02/22 04:17:51;;;;;;;;;;;;;;;2.93;100.00;99290.72;5032875;28;19973;-82
2024/02/22 04:20:17;;;;;;;;;;;;;;;2.74;100.00;99293.59;5032374;28;19917;-82
2024/02/22 04:22:48;;;;;;;;;;;;;;;2.70;100.00;99300.97;5045575;28;20008;-82
2024/02/22 04:25:16;;;;;;;;;;;;;;;2.77;100.00;99303.78;5033276;28;20412;-82
2024/02/22 04:27:42;;;;;;;;;;;;;;;2.74;100.00;99299.06;5039501;28;19921;-82
2024/02/22 04:30:10;;;;;;;;;;;;;;;2.74;100.00;99283.47;5053400;28;19917;-83
2024/02/22 04:32:36;;;;;;;;;;;;;;;2.81;100.00;99285.50;5032964;28;19921;-78
2024/02/22 04:35:02;;;;;;;;;;;;;;;2.87;100.00;99281.31;5031845;28;19917;-82
2024/02/22 04:37:30;;;;;;;;;;;;;;;2.89;100.00;99287.19;5033591;28;19913;-83
2024/02/22 04:39:55;;;;;;;;;;;;;;;2.92;100.00;99283.69;5045451;28;20372;-81
2024/02/22 04:42:20;;;;;;;;;;;;;;;2.96;100.00;99281.78;5032494;28;19948;-81
2024/02/22 04:44:47;;;;;;;;;;;;;;;2.92;100.00;99282.91;5045376;28;19960;-81
2024/02/22 04:47:12;;;;;;;;;;;;;;;2.80;100.00;99289.38;5047063;28;19917;-78
2024/02/22 04:49:41;;;;;;;;;;;;;;;2.60;100.00;99290.66;5045143;28;20441;-82
2024/02/22 04:52:06;;;;;;;;;;;;;;;2.62;100.00;99296.53;5040777;28;19969;-80
2024/02/22 04:54:36;;;;;;;;;;;;;;;2.72;100.00;99298.63;5039157;28;19913;-81
2024/02/22 04:57:01;;;;;;;;;;;;;;;2.60;100.00;99288.72;5034834;28;19921;-82
2024/02/22 04:59:41;;;;;;;;;;;;;;;2.69;100.00;99291.19;5032955;28;20303;-85
2024/02/22 05:02:08;;;;;;;;;;;;;;;2.71;100.00;99289.66;5032846;28;19952;-83
2024/02/22 05:04:35;;;;;;;;;;;;;;;2.75;100.00;99298.69;5037420;28;19913;-82
2024/02/22 05:07:04;;;;;;;;;;;;;;;2.77;100.00;99296.34;5053689;28;20312;-83
2024/02/22 05:09:31;;;;;;;;;;;;;;;2.71;100.00;99297.09;5039021;28;19920;-90
2024/02/22 05:11:58;;;;;;;;;;;;;;;2.72;100.00;99293.97;5037291;28;19924;-86
2024/02/22 05:14:23;;;;;;;;;;;;;;;2.66;100.00;99302.81;5037766;28;19917;-85
2024/02/22 05:16:49;;;;;;;;;;;;;;;2.56;100.00;99307.00;5043856;28;20010;-85
2024/02/22 05:19:14;;;;;;;;;;;;;;;2.38;100.00;99305.94;5036609;28;19981;-84
2024/02/22 05:21:40;;;;;;;;;;;;;;;2.25;100.00;99305.34;5032852;28;20011;-83
2024/02/22 05:24:10;;;;;;;;;;;;;;;2.16;100.00;99310.28;5045883;28;19999;-80
2024/02/22 05:26:35;;;;;;;;;;;;;;;2.06;100.00;99308.16;5032695;28;19929;-86
2024/02/22 05:29:07;;;;;;;;;;;;;;;2.07;100.00;99312.47;5045868;28;19913;-83
2024/02/22 05:31:34;;;;;;;;;;;;;;;1.90;100.00;99319.22;5037658;28;19944;-78
2024/02/22 05:34:01;;;;;;;;;;;;;;;1.92;100.00;99327.03;5031386;28;19921;-81
2024/02/22 05:36:28;;;;;;;;;;;;;;;1.94;100.00;99325.50;5032597;28;20507;-83
2024/02/22 05:38:54;;;;;;;;;;;;;;;1.95;100.00;99324.34;5032205;28;19913;-81
2024/02/22 05:41:19;;;;;;;;;;;;;;;2.12;100.00;99331.22;5032511;28;19917;-77
2024/02/22 05:43:46;;;;;;;;;;;;;;;2.14;100.00;99334.41;5045518;28;19996;-78
2024/02/22 05:46:11;;;;;;;;;;;;;;;2.20;100.00;99332.16;5043226;28;19921;-80
2024/02/22 05:48:36;;;;;;;;;;;;;;;2.26;100.00;99336.94;5033987;28;19920;-80
2024/02/22 05:51:02;;;;;;;;;;;;;;;2.35;100.00;99337.44;5040556;28;19913;-79
2024/02/22 05:53:27;;;;;;;;;;;;;;;2.40;100.00;99326.25;5035564;28;19917;-79
2024/02/22 05:55:57;;;;;;;;;;;;;;;2.60;100.00;99329.66;5048325;28;19912;-80
2024/02/22 05:58:23;;;;;;;;;;;;;;;2.74;100.00;99334.53;5037609;28;19917;-78
2024/02/22 06:00:48;;;;;;;;;;;;;;;2.91;100.00;99333.97;5051749;28;19912;-78
2024/02/22 06:03:16;;;;;;;;;;;;;;;3.02;100.00;99337.63;5037162;28;20403;-79
2024/02/22 06:05:43;;;;;;;;;;;;;;;3.32;100.00;99339.53;5030967;28;19925;-81
2024/02/22 06:08:08;;;;;;;;;;;;;;;3.55;100.00;99327.34;5014133;28;20412;-78
2024/02/22 06:10:36;;;;;;;;;;;;;;;3.76;100.00;99328.72;5031915;28;20016;-78
2024/02/22 06:13:04;;;;;;;;;;;;;;;4.00;100.00;99328.16;5032032;28;20339;-76
2024/02/22 06:15:29;;;;;;;;;;;;;;;4.21;100.00;99331.09;5031932;28;19973;-77
2024/02/22 06:17:56;;;;;;;;;;;;;;;4.49;100.00;99330.53;5030793;28;19923;-76
2024/02/22 06:20:23;;;;;;;;;;;;;;;5.00;100.00;99332.41;5015159;28;19921;-77
2024/02/22 06:22:53;;;;;;;;;;;;;;;5.51;100.00;99329.47;5051048;28;19913;-76
2024/02/22 06:25:24;;;;;;;;;;;;;;;6.10;100.00;99339.00;5033668;28;19913;-76
2024/02/22 06:27:59;;;;;;;;;;;;;;;6.82;95.50;99335.03;5030939;28;19921;-74
2024/02/22 06:30:25;;;;;;;;;;;;;;;7.14;92.12;99338.50;5037511;28;19921;-75
2024/02/22 06:32:51;;;;;;;;;;;;;;;7.58;88.91;99332.44;5047095;27;19974;-73
2024/02/22 06:35:23;;;;;;;;;;;;;;;7.66;86.37;99338.66;5030722;28;19956;-76
2024/02/22 06:37:51;;;;;;;;;;;;;;;7.83;85.00;99334.25;5031306;28;19919;-74
2024/02/22 06:40:17;;;;;;;;;;;;;;;8.49;82.22;99330.25;5031509;28;19917;-76
2024/02/22 06:42:42;;;;;;;;;;;;;;;8.89;77.75;99336.16;5031611;28;20005;-74
2024/02/22 06:45:08;;;;;;;;;;;;;;;9.71;73.30;99333.97;5046172;28;20004;-76
2024/02/22 06:47:33;;;;;;;;;;;;;;;10.49;69.07;99335.56;5041209;28;19918;-77
2024/02/22 06:50:03;;;;;;;;;;;;;;;10.52;65.22;99340.28;5029841;28;20002;-74
2024/02/22 06:52:29;;;;;;;;;;;;;;;10.63;68.25;99339.28;5031829;28;20318;-76
2024/02/22 06:54:54;;;;;;;;;;;;;;;10.96;63.33;99338.31;5039907;28;19913;-74
2024/02/22 06:57:20;;;;;;;;;;;;;;;11.27;61.17;99342.44;5036461;28;19939;-75
2024/02/22 06:59:45;;;;;;;;;;;;;;;10.73;62.16;99335.59;5026154;28;20591;-75
2024/02/22 07:02:15;;;;;;;;;;;;;;;10.65;63.83;99336.91;5040199;28;19917;-75
2024/02/22 07:04:42;;;;;;;;;;;;;;;10.41;63.78;99339.66;5040167;28;19917;-77
2024/02/22 07:07:07;;;;;;;;;;;;;;;9.68;67.88;99340.34;5030182;28;19979;-75
2024/02/22 07:09:33;;;;;;;;;;;;;;;9.32;71.24;99336.47;5030348;28;20034;-77
2024/02/22 07:12:04;;;;;;;;;;;;;;;9.28;73.26;99330.97;5029459;28;19917;-76
2024/02/22 07:14:32;;;;;;;;;;;;;;;9.28;74.00;99335.72;5030415;28;19920;-76
2024/02/22 07:17:10;;;;;;;;;;;;;;;9.09;75.17;99326.09;5031010;28;20013;-78
2024/02/22 07:19:56;;;;;;;;;;;;;;;9.04;74.64;99325.78;5031819;28;19914;-77
2024/02/22 07:22:51;;;;;;;;;;;;;;;8.97;73.37;99321.13;5044494;28;19917;-75
2024/02/22 07:25:51;;;;;;;;;;;;;;;9.18;72.84;99314.56;5029979;28;20011;-75
2024/02/22 07:28:16;;;;;;;;;;;;;;;9.24;71.98;99312.91;5028384;28;19922;-75
2024/02/22 07:30:45;;;;;;;;;;;;;;;9.32;70.76;99312.44;5042127;28;19913;-76
2024/02/22 07:33:12;;;;;;;;;;;;;;;9.32;70.97;99306.13;5029888;28;19913;-77
2024/02/22 07:35:46;;;;;;;;;;;;;;;9.35;72.60;99302.53;5041968;28;19917;-74
2024/02/22 07:38:16;;;;;;;;;;;;;;;9.44;71.75;99310.31;5041531;28;20313;-76
2024/02/22 07:41:24;;;;;;;;;;;;;;;9.55;70.29;99310.94;5039175;28;19925;-75
2024/02/22 07:44:06;;;;;;;;;;;;;;;9.60;67.87;99308.50;5033989;28;20305;-74
2024/02/22 07:46:46;;;;;;;;;;;;;;;9.68;66.66;99303.69;5036514;28;19956;-75
2024/02/22 07:49:28;;;;;;;;;;;;;;;9.82;68.33;99301.47;5049959;28;19917;-77
2024/02/22 07:52:00;;;;;;;;;;;;;;;10.01;68.56;99299.25;5035779;28;19913;-75
2024/02/22 07:54:49;;;;;;;;;;;;;;;10.15;67.34;99296.25;5050030;27;19984;-75
2024/02/22 07:57:32;;;;;;;;;;;;;;;10.15;62.95;99293.50;5049198;28;20007;-75
2024/02/22 08:00:01;;;;;;;;;;;;;;;10.16;63.88;99295.06;5043481;28;19973;-76
2024/02/22 08:02:51;;;;;;;;;;;;;;;10.31;61.90;99298.41;5030239;28;19917;-75
2024/02/22 08:05:45;;;;;;;;;;;;;;;10.29;59.86;99300.81;5040471;28;19920;-74
2024/02/22 08:08:15;;;;;;;;;;;;;;;10.31;59.62;99301.19;5043472;28;19921;-75
2024/02/22 08:10:40;;;;;;;;;;;;;;;10.30;57.87;99297.63;5028971;28;20023;-74
2024/02/22 08:13:06;;;;;;;;;;;;;;;10.38;57.97;99296.28;5047405;28;19948;-77
2024/02/22 08:15:37;;;;;;;;;;;;;;;10.48;60.25;99300.09;5048593;28;19923;-74
2024/02/22 08:18:05;;;;;;;;;;;;;;;10.43;59.24;99287.53;5034868;28;19972;-75
2024/02/22 08:20:34;;;;;;;;;;;;;;;10.54;61.93;99282.63;5049508;28;19916;-74
2024/02/22 08:23:22;;;;;;;;;;;;;;;10.49;60.70;99279.53;5028398;28;19963;-74
2024/02/22 08:25:53;;;;;;;;;;;;;;;10.57;63.73;99273.47;5034961;28;19913;-74
2024/02/22 08:28:19;;;;;;;;;;;;;;;10.61;60.89;99270.63;5038304;28;19913;-75
2024/02/22 08:31:06;;;;;;;;;;;;;;;10.61;61.99;99274.19;5041945;28;20389;-77
2024/02/22 08:33:38;;;;;;;;;;;;;;;10.60;60.58;99275.41;5099354;27;19965;-74
2024/02/22 08:36:06;;;;;;;;;;;;;;;10.54;57.40;99270.78;5023594;28;19916;-74
2024/02/22 08:38:32;;;;;;;;;;;;;;;10.57;58.01;99272.69;5033576;28;20397;-75
2024/02/22 08:40:57;;;;;;;;;;;;;;;10.65;57.21;99273.34;5035921;27;19913;-76
2024/02/22 08:43:23;;;;;;;;;;;;;;;10.75;59.23;99267.63;5033943;28;19973;-75
2024/02/22 08:45:52;;;;;;;;;;;;;;;10.65;58.57;99270.59;5036519;28;19996;-77
2024/02/22 08:48:39;;;;;;;;;;;;;;;10.70;60.49;99264.56;5034335;28;19913;-75
2024/02/22 08:51:04;;;;;;;;;;;;;;;10.97;63.28;99266.00;5048183;28;19924;-74
2024/02/22 08:53:32;;;;;;;;;;;;;;;11.01;62.90;99263.16;5030924;28;19921;-75
2024/02/22 08:55:59;;;;;;;;;;;;;;;11.02;60.86;99267.50;5048005;28;19921;-76
2024/02/22 08:58:42;;;;;;;;;;;;;;;11.14;59.23;99272.38;5046829;28;20237;-74
2024/02/22 09:01:12;;;;;;;;;;;;;;;11.19;57.77;99269.13;5033508;28;19925;-74
2024/02/22 09:04:15;;;;;;;;;;;;;;;11.19;58.35;99263.59;5038828;28;19920;-75
2024/02/22 09:06:47;;;;;;;;;;;;;;;11.28;62.23;99261.00;5047142;28;19964;-76
2024/02/22 09:09:13;;;;;;;;;;;;;;;11.53;64.34;99256.94;5033871;28;19940;-75
2024/02/22 09:11:44;;;;;;;;;;;;;;;11.79;62.09;99247.66;5040603;28;19983;-76
2024/02/22 09:14:12;;;;;;;;;;;;;;;11.73;61.91;99246.59;5025127;28;19928;-75
2024/02/22 09:16:40;;;;;;;;;;;;;;;11.84;58.75;99252.69;5036205;28;19921;-74
2024/02/22 09:19:09;;;;;;;;;;;;;;;11.65;59.41;99253.50;5046583;28;19923;-78
2024/02/22 09:21:34;;;;;;;;;;;;;;;11.61;56.65;99252.81;5027587;28;19917;-78
2024/02/22 09:24:00;;;;;;;;;;;;;;;11.26;57.22;99257.91;5042560;28;19913;-77
2024/02/22 09:26:26;;;;;;;;;;;;;;;11.27;61.15;99250.41;5047562;28;20308;-78
2024/02/22 09:28:55;;;;;;;;;;;;;;;11.43;58.30;99240.16;5029932;28;19976;-77
2024/02/22 09:31:24;;;;;;;;;;;;;;;11.41;61.07;99248.09;5049189;28;19924;-74
2024/02/22 09:33:55;;;;;;;;;;;;;;;11.50;59.93;99236.44;5035468;28;19921;-73
2024/02/22 09:36:43;;;;;;;;;;;;;;;11.76;61.72;99234.69;5035947;28;19913;-74
2024/02/22 09:39:08;;;;;;;;;;;;;;;11.66;55.36;99235.69;5041076;28;20393;-75
2024/02/22 09:41:45;;;;;;;;;;;;;;;11.57;57.31;99241.81;5030710;28;19913;-75
2024/02/22 09:44:12;;;;;;;;;;;;;;;11.59;55.37;99227.53;5015605;28;19929;-76
2024/02/22 09:46:39;;;;;;;;;;;;;;;11.75;59.58;99224.84;5008876;28;19932;-74
2024/02/22 09:49:17;;;;;;;;;;;;;;;11.78;57.01;99221.19;5038486;28;20297;-76
2024/02/22 09:51:43;;;;;;;;;;;;;;;11.90;58.79;99220.50;5038157;28;20440;-76
2024/02/22 09:54:25;;;;;;;;;;;;;;;11.96;54.64;99224.31;5041401;28;19913;-76
2024/02/22 09:56:51;;;;;;;;;;;;;;;11.79;54.37;99225.53;5023999;28;19921;-75
2024/02/22 09:59:17;;;;;;;;;;;;;;;11.87;59.18;99215.06;5030398;28;19932;-75
2024/02/22 10:01:47;;;;;;;;;;;;;;;11.94;56.43;99218.41;5043806;28;19917;-75
2024/02/22 10:04:34;;;;;;;;;;;;;;;11.87;54.54;99210.31;5043194;28;19923;-75
2024/02/22 10:09:47;;;;;;;;;;;;;;;11.61;55.32;99200.22;5050049;28;19920;-76
2024/02/22 10:12:23;;;;;;;;;;;;;;;11.69;56.14;99190.53;5039854;28;19917;-75
2024/02/22 10:14:51;;;;;;;;;;;;;;;11.58;58.59;99192.75;5049645;28;19913;-74
2024/02/22 10:17:24;;;;;;;;;;;;;;;11.98;62.28;99188.66;5049664;28;19917;-76
2024/02/22 10:20:09;;;;;;;;;;;;;;;12.05;61.27;99177.41;5017787;28;19917;-74
2024/02/22 10:22:36;;;;;;;;;;;;;;;12.09;55.07;99167.00;5030224;28;19970;-79
2024/02/22 10:25:11;;;;;;;;;;;;;;;12.17;57.64;99167.63;5024057;28;19929;-74
2024/02/22 10:27:37;;;;;;;;;;;;;;;12.22;56.83;99167.06;5046278;28;19988;-75
2024/02/22 10:30:09;;;;;;;;;;;;;;;12.28;59.45;99159.78;5030897;28;20309;-78
2024/02/22 10:32:40;;;;;;;;;;;;;;;12.22;56.72;99147.69;5036361;28;19923;-75
2024/02/22 10:35:33;;;;;;;;;;;;;;;12.11;54.64;99145.22;5048751;28;19920;-77
2024/02/22 10:38:09;;;;;;;;;;;;;;;12.19;58.63;99134.69;5030432;28;20303;-74
2024/02/22 10:40:43;;;;;;;;;;;;;;;12.34;56.11;99121.25;5048018;28;19985;-76
2024/02/22 10:43:10;;;;;;;;;;;;;;;12.29;55.19;99127.31;5049529;28;19913;-76
2024/02/22 10:45:45;;;;;;;;;;;;;;;12.05;54.68;99116.47;5031493;28;19913;-75
2024/02/22 10:48:13;;;;;;;;;;;;;;;12.09;55.69;99119.94;5029811;28;20386;-73
2024/02/22 10:50:38;;;;;;;;;;;;;;;12.01;54.47;99110.25;5041994;28;19923;-78
2024/02/22 10:53:07;;;;;;;;;;;;;;;12.05;52.97;99099.88;5037636;28;20488;-78
2024/02/22 10:55:39;;;;;;;;;;;;;;;12.03;54.04;99101.50;5037450;28;19923;-75
2024/02/22 10:58:06;;;;;;;;;;;;;;;11.98;53.75;99093.72;5036464;28;19939;-76
2024/02/22 11:00:34;;;;;;;;;;;;;;;12.01;53.93;99092.84;5031295;28;19929;-74
2024/02/22 11:03:00;;;;;;;;;;;;;;;12.11;55.49;99083.50;5040743;28;19959;-77
2024/02/22 11:05:37;;;;;;;;;;;;;;;12.23;52.83;99078.00;5041102;28;19924;-74
2024/02/22 11:08:03;;;;;;;;;;;;;;;12.17;52.52;99076.19;5031383;28;20012;-77
2024/02/22 11:10:32;;;;;;;;;;;;;;;12.07;52.38;99069.72;5030507;28;19917;-76
2024/02/22 11:13:03;;;;;;;;;;;;;;;12.08;52.13;99067.72;5037693;28;20012;-75
2024/02/22 11:15:35;;;;;;;;;;;;;;;12.15;52.05;99065.56;5031524;28;19917;-77
2024/02/22 11:18:02;;;;;;;;;;;;;;;12.24;52.18;99073.22;5038201;28;20004;-75
2024/02/22 11:20:32;;;;;;;;;;;;;;;12.30;54.75;99059.63;5029323;28;20454;-76
2024/02/22 11:22:58;;;;;;;;;;;;;;;12.58;54.03;99056.00;5044797;28;19913;-74
2024/02/22 11:25:23;;;;;;;;;;;;;;;12.67;52.05;99056.13;5033012;28;20405;-75
2024/02/22 11:28:01;;;;;;;;;;;;;;;12.75;52.94;99048.38;5034531;28;19929;-78
2024/02/22 11:30:27;;;;;;;;;;;;;;;12.68;53.25;99056.91;5031849;28;19921;-79
2024/02/22 11:32:53;;;;;;;;;;;;;;;12.54;51.66;99044.25;5107950;27;20028;-77
2024/02/22 11:35:21;;;;;;;;;;;;;;;12.63;52.16;99041.59;5034057;28;19930;-74
2024/02/22 11:38:04;;;;;;;;;;;;;;;12.61;52.16;99036.50;5031972;28;20317;-76
2024/02/22 11:40:35;;;;;;;;;;;;;;;12.72;53.50;99030.63;5026512;28;19978;-79
2024/02/22 11:43:01;;;;;;;;;;;;;;;12.53;50.42;99024.09;5045946;28;20003;-75
2024/02/22 11:45:28;;;;;;;;;;;;;;;12.70;50.83;99021.22;5022855;28;19968;-73
2024/02/22 11:47:56;;;;;;;;;;;;;;;12.75;50.61;99021.44;5039195;28;20309;-76
2024/02/22 11:50:22;;;;;;;;;;;;;;;12.73;48.38;99010.00;5029936;28;20374;-76
2024/02/22 11:52:48;;;;;;;;;;;;;;;12.68;50.34;99007.00;5030568;28;19914;-74
2024/02/22 11:55:17;;;;;;;;;;;;;;;12.78;50.07;99011.47;5030810;28;19921;-78
2024/02/22 11:57:42;;;;;;;;;;;;;;;12.87;50.05;99009.56;5030462;28;19923;-76
2024/02/22 12:00:08;;;;;;;;;;;;;;;13.04;51.15;99011.00;5034607;28;20007;-75
2024/02/22 12:02:35;;;;;;;;;;;;;;;13.12;51.09;99005.22;5035895;28;19928;-75
2024/02/22 12:05:01;;;;;;;;;;;;;;;12.91;49.03;98999.13;5026171;28;19928;-76
2024/02/22 12:07:28;;;;;;;;;;;;;;;12.88;49.46;98990.94;5034506;28;19921;-73
2024/02/22 12:09:53;;;;;;;;;;;;;;;12.81;49.46;98994.69;5038211;28;19920;-75
2024/02/22 12:12:19;;;;;;;;;;;;;;;12.84;47.51;98991.03;5032871;28;19917;-77
2024/02/22 12:14:54;;;;;;;;;;;;;;;12.84;48.35;98985.47;5035262;28;19917;-76
2024/02/22 12:17:23;;;;;;;;;;;;;;;12.97;48.36;98989.03;5032637;28;19961;-74
2024/02/22 12:19:51;;;;;;;;;;;;;;;13.00;49.12;98976.28;5031439;28;19936;-74
2024/02/22 12:22:16;;;;;;;;;;;;;;;13.08;48.14;98971.28;5027424;28;20394;-74
2024/02/22 12:24:45;;;;;;;;;;;;;;;12.97;46.00;98975.16;5029910;28;20020;-75
2024/02/22 12:27:12;;;;;;;;;;;;;;;13.03;46.82;98976.16;5034306;28;20007;-77
2024/02/22 12:29:40;;;;;;;;;;;;;;;12.93;47.50;98973.72;5019000;28;19921;-77
2024/02/22 12:32:06;;;;;;;;;;;;;;;13.06;47.21;98963.41;5014230;28;20457;-76
2024/02/22 12:34:31;;;;;;;;;;;;;;;13.04;47.04;98963.06;5033557;28;20033;-75
2024/02/22 12:36:57;;;;;;;;;;;;;;;13.01;46.48;98961.19;5025148;28;19921;-78
2024/02/22 12:39:24;;;;;;;;;;;;;;;12.93;45.85;98957.88;5033361;28;19921;-78
2024/02/22 12:41:50;;;;;;;;;;;;;;;12.87;46.93;98948.56;5031898;28;20624;-78
2024/02/22 12:44:17;;;;;;;;;;;;;;;12.90;47.20;98939.31;5041577;28;19917;-76
2024/02/22 12:46:43;;;;;;;;;;;;;;;12.92;46.89;98934.13;5038572;28;19928;-77
2024/02/22 12:49:08;;;;;;;;;;;;;;;13.08;47.20;98929.66;5036095;28;19917;-77
2024/02/22 12:51:34;;;;;;;;;;;;;;;13.17;46.42;98927.00;5043148;28;19917;-76
2024/02/22 12:53:59;;;;;;;;;;;;;;;13.14;44.96;98923.09;5029321;28;19971;-78
2024/02/22 12:56:24;;;;;;;;;;;;;;;13.16;43.82;98914.34;5041042;28;19927;-74
2024/02/22 12:58:50;;;;;;;;;;;;;;;13.14;45.92;98902.94;5044257;28;20319;-75
2024/02/22 13:01:15;;;;;;;;;;;;;;;13.22;46.51;98907.78;5038114;28;20389;-78